M I D A S
Marine Information and Data Acquisition System
Tripno 1283 of the Zeeleeuw from 2007-06-08 04:51:00 to 2007-06-08 10:51:00
Back to CruiseResearch ActivitiesStationsMapUnderway DataData graphs

EquipmentUnitsComment
TimeDGPSUTC
LatitudeDGPSDM.mWGS84
LongitudeDGPSDM.mWGS84
HeadingGyrodeg 
SOGDGPSknotsSpeed over ground
COGDGPSdegCourse over ground
DepthEcho soundermeters200 kHz
Missing or incorrect values are displayed as -999
Navigation data collected by the RV Zeeleeuw from 2007-06-08 04:51:00 to 2007-06-08 10:51:00
Time Latitude Longitude Heading SOG COG Depth
2007-06-08 04:56:21 51°13.58 2°56.133 126.2 0.1 211 10.8
2007-06-08 04:59:31 51°13.58 2°56.135 126.3 0.1 18 10.8
2007-06-08 04:59:51 51°13.58 2°56.135 126.2 0.1 38 -999
2007-06-08 04:59:56 51°13.58 2°56.134 126.2 0.1 234 10.8
2007-06-08 05:00:46 51°13.581 2°56.135 126.2 0.1 245 10.9
2007-06-08 05:00:51 51°13.581 2°56.135 126.2 0.1 235 10.9
2007-06-08 05:00:56 51°13.581 2°56.135 126.2 0.1 232 10.8
2007-06-08 05:01:01 51°13.581 2°56.135 126.2 0.1 228 10.8
2007-06-08 05:01:21 51°13.581 2°56.135 126.2 0.1 220 10.8
2007-06-08 05:01:51 51°13.581 2°56.135 126.2 0.1 40 10.8
2007-06-08 05:04:16 51°13.58 2°56.134 126.3 0.1 34 10.9
2007-06-08 05:14:41 51°13.581 2°56.134 126.5 0.1 49 10.9
2007-06-08 05:15:46 51°13.58 2°56.133 126.5 0.1 239 10.8
2007-06-08 05:15:51 51°13.58 2°56.133 126.5 0.1 214 10.9
2007-06-08 05:16:06 51°13.58 2°56.133 126.5 0.1 25 10.8
2007-06-08 05:18:41 51°13.581 2°56.133 126.5 0.1 43 10.8
2007-06-08 05:21:21 51°13.579 2°56.132 126.5 0.1 98 10.9
2007-06-08 05:27:36 51°13.58 2°56.133 121.2 0.2 140 10.8
2007-06-08 05:27:41 51°13.579 2°56.134 120.7 0.3 134 10.8
2007-06-08 05:27:46 51°13.579 2°56.134 119.9 0.2 130 10.8
2007-06-08 05:27:56 51°13.579 2°56.133 118.3 0.4 286 10.8
2007-06-08 05:28:01 51°13.58 2°56.132 118.3 0.8 295 10.8
2007-06-08 05:28:06 51°13.58 2°56.13 118.3 1.1 296 10.9
2007-06-08 05:28:11 51°13.581 2°56.127 118.7 1.3 295 11
2007-06-08 05:28:16 51°13.582 2°56.124 118.9 1.6 299 11.1
2007-06-08 05:28:21 51°13.583 2°56.12 119.1 1.8 298 11
2007-06-08 05:28:26 51°13.585 2°56.116 119.1 2.2 299 -999
2007-06-08 05:28:31 51°13.586 2°56.111 119 2.5 297 -999
2007-06-08 05:28:36 51°13.588 2°56.106 118.6 2.9 298 -999
2007-06-08 05:28:41 51°13.59 2°56.099 118.6 3.2 298 -999
2007-06-08 05:28:46 51°13.593 2°56.093 118.7 3.6 297 -999
2007-06-08 05:28:51 51°13.595 2°56.085 118.9 3.9 297 -999
2007-06-08 05:28:56 51°13.598 2°56.077 118.9 4.1 297 -999
2007-06-08 05:29:01 51°13.6 2°56.068 119 4.4 297 -999
2007-06-08 05:29:06 51°13.603 2°56.059 119.2 4.6 297 -999
2007-06-08 05:29:11 51°13.606 2°56.05 119.5 4.8 297 -999
2007-06-08 05:29:16 51°13.609 2°56.04 119.9 5 297 -999
2007-06-08 05:29:21 51°13.613 2°56.03 120.4 5.2 298 -999
2007-06-08 05:29:26 51°13.616 2°56.019 121 5.3 298 -999
2007-06-08 05:29:31 51°13.62 2°56.009 121.4 5.4 300 -999
2007-06-08 05:29:36 51°13.624 2°55.999 121.9 5.5 300 -999
2007-06-08 05:29:41 51°13.628 2°55.988 122.5 5.6 300 -999
2007-06-08 05:29:46 51°13.632 2°55.977 122.8 5.7 301 -999
2007-06-08 05:29:51 51°13.636 2°55.966 123.2 5.8 301 -999
2007-06-08 05:29:56 51°13.64 2°55.955 123.4 5.8 302 -999
2007-06-08 05:30:01 51°13.644 2°55.944 123.6 5.9 302 -999
2007-06-08 05:30:06 51°13.649 2°55.933 123.9 5.9 302 -999
2007-06-08 05:30:11 51°13.653 2°55.922 124.2 5.9 303 -999
2007-06-08 05:30:16 51°13.657 2°55.911 124.6 5.9 303 -999
2007-06-08 05:30:21 51°13.662 2°55.9 125.1 6 303 -999
2007-06-08 05:30:26 51°13.667 2°55.889 125.7 6 304 -999
2007-06-08 05:30:31 51°13.671 2°55.878 126.3 6 305 -999
2007-06-08 05:30:36 51°13.676 2°55.868 126.9 6 305 -999
2007-06-08 05:30:41 51°13.681 2°55.857 127.7 6.1 306 -999
2007-06-08 05:30:46 51°13.686 2°55.846 128.1 6.1 306 -999
2007-06-08 05:30:51 51°13.691 2°55.835 128.5 6.1 306 -999
2007-06-08 05:30:56 51°13.696 2°55.824 128.8 6.1 307 -999
2007-06-08 05:31:01 51°13.701 2°55.814 129.1 6.1 307 -999
2007-06-08 05:31:06 51°13.706 2°55.803 129.6 6 307 -999
2007-06-08 05:31:11 51°13.711 2°55.793 130.2 5.9 308 -999
2007-06-08 05:31:16 51°13.716 2°55.782 131.3 5.9 309 -999
2007-06-08 05:31:21 51°13.722 2°55.773 132.7 5.8 310 -999
2007-06-08 05:31:26 51°13.727 2°55.763 134.2 5.8 311 -999
2007-06-08 05:31:31 51°13.732 2°55.754 135.9 5.7 313 -999
2007-06-08 05:31:36 51°13.738 2°55.745 137.2 5.7 315 -999
2007-06-08 05:31:41 51°13.743 2°55.736 139.5 5.8 316 -999
2007-06-08 05:31:46 51°13.749 2°55.727 140.9 5.9 317 -999
2007-06-08 05:31:51 51°13.756 2°55.718 142.4 6 319 -999
2007-06-08 05:31:56 51°13.762 2°55.71 143.7 6 321 -999
2007-06-08 05:32:01 51°13.769 2°55.701 144.9 6.1 322 -999
2007-06-08 05:32:06 51°13.775 2°55.693 146.2 6.1 323 -999
2007-06-08 05:32:11 51°13.782 2°55.686 147.3 6 325 -999
2007-06-08 05:32:16 51°13.789 2°55.678 149.5 5.9 326 -999
2007-06-08 05:32:21 51°13.796 2°55.672 151.6 5.8 329 -999
2007-06-08 05:32:26 51°13.803 2°55.665 153.8 5.8 330 -999
2007-06-08 05:32:31 51°13.81 2°55.659 155.8 5.7 332 -999
2007-06-08 05:32:36 51°13.817 2°55.654 158.3 5.6 335 -999
2007-06-08 05:32:41 51°13.824 2°55.649 161.6 5.6 337 -999
2007-06-08 05:32:46 51°13.832 2°55.645 164.5 5.5 341 -999
2007-06-08 05:32:51 51°13.839 2°55.641 167.6 5.5 343 -999
2007-06-08 05:32:56 51°13.846 2°55.639 170.1 5.4 347 -999
2007-06-08 05:33:01 51°13.854 2°55.636 174 5.4 351 -999
2007-06-08 05:33:06 51°13.861 2°55.635 176.8 5.3 353 -999
2007-06-08 05:33:11 51°13.868 2°55.634 179.2 5.3 356 -999
2007-06-08 05:33:16 51°13.876 2°55.634 182 5.2 -999 -999
2007-06-08 05:33:21 51°13.883 2°55.634 185.5 5.2 2 -999
2007-06-08 05:33:26 51°13.89 2°55.635 187.9 5 5 -999
2007-06-08 05:33:31 51°13.897 2°55.637 189.4 4.9 8 -999
2007-06-08 05:33:36 51°13.903 2°55.638 191.2 4.7 9 -999
2007-06-08 05:33:41 51°13.909 2°55.64 193.1 4.6 10 -999
2007-06-08 05:33:46 51°13.915 2°55.642 194.5 4.3 11 -999
2007-06-08 05:33:51 51°13.921 2°55.644 195.2 4.1 13 -999
2007-06-08 05:33:56 51°13.926 2°55.646 195.8 3.9 13 -999
2007-06-08 05:34:01 51°13.931 2°55.648 196.4 3.4 17 -999
2007-06-08 05:34:06 51°13.935 2°55.65 197.1 2.9 18 4.9
2007-06-08 05:34:11 51°13.938 2°55.652 197.8 2.3 21 5
2007-06-08 05:34:16 51°13.94 2°55.654 198.8 1.6 22 13.5
2007-06-08 05:34:21 51°13.941 2°55.655 200.1 0.7 42 13.6
2007-06-08 05:34:26 51°13.94 2°55.655 201.6 0.4 188 -999
2007-06-08 05:34:31 51°13.939 2°55.654 206.1 1.2 204 13.5
2007-06-08 05:34:36 51°13.937 2°55.652 211.9 1.9 214 13.6
2007-06-08 05:34:41 51°13.934 2°55.648 217.7 2.5 226 13.6
2007-06-08 05:34:46 51°13.932 2°55.642 226.2 3.2 236 13.6
2007-06-08 05:34:51 51°13.93 2°55.635 235 3.5 243 -999
2007-06-08 05:34:56 51°13.928 2°55.628 243.8 3.5 250 13.5
2007-06-08 05:35:01 51°13.927 2°55.62 252.8 3.4 259 13.5
2007-06-08 05:35:06 51°13.926 2°55.613 260.5 3.4 260 13.5
2007-06-08 05:35:11 51°13.926 2°55.605 266.1 3.4 268 13.5
2007-06-08 05:35:16 51°13.926 2°55.598 271.4 3.1 272 13.5
2007-06-08 05:35:21 51°13.927 2°55.592 276.6 2.8 278 13.8
2007-06-08 05:35:26 51°13.927 2°55.587 280.6 2.3 276 13.7
2007-06-08 05:35:31 51°13.928 2°55.584 283.5 1.6 284 13.7
2007-06-08 05:35:36 51°13.928 2°55.582 288 0.9 278 13.7
2007-06-08 05:35:41 51°13.928 2°55.581 292.5 0.2 275 13.7
2007-06-08 05:35:46 51°13.927 2°55.581 296.8 0.4 151 13.8
2007-06-08 05:35:51 51°13.927 2°55.582 300.6 0.3 133 13.8
2007-06-08 05:35:56 51°13.926 2°55.582 303.6 0.2 149 13.8
2007-06-08 05:36:06 51°13.925 2°55.581 307.8 0.2 295 13.8
2007-06-08 05:36:11 51°13.926 2°55.58 310 0.7 318 13.8
2007-06-08 05:36:16 51°13.927 2°55.578 312.6 1.3 314 13.8
2007-06-08 05:36:21 51°13.929 2°55.576 316.5 1.8 325 13.8
2007-06-08 05:36:26 51°13.933 2°55.573 322.5 2.4 327 13.7
2007-06-08 05:36:31 51°13.937 2°55.57 328.6 2.9 333 13.8
2007-06-08 05:36:36 51°13.941 2°55.567 334.2 3.4 337 13.7
2007-06-08 05:36:41 51°13.945 2°55.563 338.3 3.8 339 13.8
2007-06-08 05:36:46 51°13.951 2°55.56 341 4.2 340 13.7
2007-06-08 05:36:51 51°13.958 2°55.557 342.1 4.6 341 13.7
2007-06-08 05:36:56 51°13.964 2°55.554 342.3 5 339 13.8
2007-06-08 05:37:01 51°13.971 2°55.55 341.2 5.3 339 13.7
2007-06-08 05:37:06 51°13.978 2°55.545 340.4 5.6 338 13.7
2007-06-08 05:37:11 51°13.986 2°55.54 340.1 5.9 338 13.7
2007-06-08 05:37:16 51°13.994 2°55.535 339.8 6.1 337 13.8
2007-06-08 05:37:21 51°14.002 2°55.529 339.6 6.3 337 13.8
2007-06-08 05:37:26 51°14.01 2°55.524 339.2 6.5 339 13.8
2007-06-08 05:37:31 51°14.019 2°55.518 339.8 6.6 338 13.8
2007-06-08 05:37:36 51°14.028 2°55.514 341 6.7 340 13.7
2007-06-08 05:37:41 51°14.036 2°55.508 342 6.8 337 13.7
2007-06-08 05:37:46 51°14.045 2°55.502 340.8 6.9 338 13.8
2007-06-08 05:37:51 51°14.054 2°55.496 339.6 7 336 13.8
2007-06-08 05:37:56 51°14.063 2°55.49 339 7.1 337 13.8
2007-06-08 05:38:01 51°14.072 2°55.483 338.7 7.2 335 13.7
2007-06-08 05:38:06 51°14.081 2°55.477 338.3 7.2 336 13.7
2007-06-08 05:38:11 51°14.091 2°55.47 337.9 7.3 334 13.8
2007-06-08 05:38:16 51°14.1 2°55.463 336.9 7.3 334 13.8
2007-06-08 05:38:21 51°14.109 2°55.455 336.3 7.3 333 13.7
2007-06-08 05:38:26 51°14.118 2°55.448 335.5 7.3 333 13.7
2007-06-08 05:38:31 51°14.127 2°55.44 334.6 7.5 331 13.7
2007-06-08 05:38:36 51°14.136 2°55.431 333.7 7.8 331 13.7
2007-06-08 05:38:41 51°14.146 2°55.423 333.3 8.1 330 13.9
2007-06-08 05:38:46 51°14.156 2°55.414 332.2 8.3 329 13.7
2007-06-08 05:38:51 51°14.166 2°55.404 331.7 8.5 328 13.7
2007-06-08 05:38:56 51°14.176 2°55.393 330.9 8.8 327 13.6
2007-06-08 05:39:01 51°14.186 2°55.382 330 9 325 13.7
2007-06-08 05:39:06 51°14.196 2°55.369 328.5 9.1 323 13.6
2007-06-08 05:39:11 51°14.206 2°55.356 326.4 9.2 322 13.7
2007-06-08 05:39:16 51°14.216 2°55.343 325.3 9.4 320 13.7
2007-06-08 05:39:21 51°14.226 2°55.329 324.4 9.6 319 13.6
2007-06-08 05:39:26 51°14.236 2°55.314 322.9 9.8 317 13.9
2007-06-08 05:39:31 51°14.246 2°55.299 321.4 10 315 13.8
2007-06-08 05:39:36 51°14.256 2°55.283 319.6 10.1 315 13.6
2007-06-08 05:39:41 51°14.266 2°55.266 318.8 10.3 313 13.8
2007-06-08 05:39:46 51°14.275 2°55.249 317.5 10.4 311 14
2007-06-08 05:39:51 51°14.284 2°55.232 315.6 10.3 310 13.6
2007-06-08 05:39:56 51°14.294 2°55.214 314.5 10.4 309 14
2007-06-08 05:40:01 51°14.303 2°55.196 313.6 10.5 308 13.8
2007-06-08 05:40:06 51°14.312 2°55.177 312 10.7 307 13.8
2007-06-08 05:40:11 51°14.321 2°55.158 310.8 10.8 308 13.5
2007-06-08 05:40:16 51°14.33 2°55.14 311 10.8 309 13.6
2007-06-08 05:40:21 51°14.34 2°55.121 312 10.9 309 13.9
2007-06-08 05:40:26 51°14.349 2°55.103 313.3 10.6 311 13.4
2007-06-08 05:40:31 51°14.359 2°55.085 314.5 10.7 310 13.9
2007-06-08 05:40:36 51°14.368 2°55.068 314.2 10.6 312 13.3
2007-06-08 05:40:41 51°14.379 2°55.051 315.4 10.8 318 13.7
2007-06-08 05:40:46 51°14.392 2°55.037 317.3 11.1 323 13.5
2007-06-08 05:40:51 51°14.405 2°55.024 321.7 11.4 329 13.6
2007-06-08 05:40:56 51°14.419 2°55.011 326.8 11.6 331 13.2
2007-06-08 05:41:01 51°14.434 2°54.999 329.4 11.8 332 12.9
2007-06-08 05:41:06 51°14.448 2°54.987 331 11.9 332 13.1
2007-06-08 05:41:11 51°14.463 2°54.974 331.6 12 332 13.3
2007-06-08 05:41:16 51°14.478 2°54.961 331.5 12.1 331 12.5
2007-06-08 05:41:21 51°14.493 2°54.949 330.9 12.3 333 12.7
2007-06-08 05:41:26 51°14.508 2°54.936 330.6 12.4 332 12.4
2007-06-08 05:41:31 51°14.523 2°54.923 330.5 12.4 332 12.3
2007-06-08 05:41:35 51°14.536 2°54.914 330.9 12.4 333 12.1
2007-06-08 05:41:41 51°14.554 2°54.899 330.9 12.5 334 12.2
2007-06-08 05:41:46 51°14.57 2°54.887 331.3 12.5 334 12
2007-06-08 05:41:51 51°14.586 2°54.875 331.9 12.6 335 12
2007-06-08 05:41:56 51°14.601 2°54.863 332.4 12.5 333 12
2007-06-08 05:42:00 51°14.614 2°54.853 332 12.7 333 12.1
2007-06-08 05:42:06 51°14.632 2°54.838 331.4 12.1 333 11.5
2007-06-08 05:42:11 51°14.647 2°54.825 331.3 12.1 331 12.1
2007-06-08 05:42:16 51°14.662 2°54.813 330.7 12.4 332 11.8
2007-06-08 05:42:21 51°14.677 2°54.8 330.4 12.5 333 11.6
2007-06-08 05:42:26 51°14.692 2°54.787 330.9 12.3 332 11.6
2007-06-08 05:42:31 51°14.708 2°54.775 331.4 12.4 333 12.2
2007-06-08 05:42:36 51°14.723 2°54.762 331.5 12.5 333 12
2007-06-08 05:42:41 51°14.739 2°54.75 331.3 12.4 333 11.9
2007-06-08 05:42:46 51°14.754 2°54.737 331.7 12.3 332 12.1
2007-06-08 05:42:51 51°14.769 2°54.725 332 12.3 333 11.9
2007-06-08 05:42:56 51°14.784 2°54.712 330.9 12.5 333 12.1
2007-06-08 05:43:00 51°14.797 2°54.703 331.7 12.5 333 12.1
2007-06-08 05:43:06 51°14.815 2°54.688 331.8 12.4 334 11.9
2007-06-08 05:43:11 51°14.831 2°54.675 332 12.5 333 12.2
2007-06-08 05:43:16 51°14.846 2°54.663 332.1 12.4 334 11.8
2007-06-08 05:43:21 51°14.862 2°54.651 331.8 12.4 334 12
2007-06-08 05:43:26 51°14.877 2°54.64 331.9 12.5 335 12.1
2007-06-08 05:43:30 51°14.89 2°54.63 332.4 12.5 335 11.8
2007-06-08 05:43:36 51°14.909 2°54.616 332.6 12.5 335 11.9
2007-06-08 05:43:41 51°14.925 2°54.605 332.5 12.7 336 11.8
2007-06-08 05:43:46 51°14.941 2°54.593 332.3 12.7 336 11.6
2007-06-08 05:43:51 51°14.957 2°54.582 332.6 12.7 336 11.5
2007-06-08 05:43:55 51°14.97 2°54.573 333 12.7 336 11.7
2007-06-08 05:44:01 51°14.989 2°54.558 332.7 12.7 334 11.5
2007-06-08 05:44:06 51°15.004 2°54.546 331.8 12.5 333 11.4
2007-06-08 05:44:11 51°15.019 2°54.532 330.4 12.5 330 11.5
2007-06-08 05:44:16 51°15.034 2°54.518 329.1 12.5 330 11.1
2007-06-08 05:44:21 51°15.049 2°54.503 328.1 12.5 328 11
2007-06-08 05:44:26 51°15.064 2°54.489 327.4 12.4 329 11
2007-06-08 05:44:31 51°15.078 2°54.474 327.3 12.4 328 11
2007-06-08 05:44:36 51°15.093 2°54.46 327.2 12.3 328 11.1
2007-06-08 05:44:41 51°15.107 2°54.446 327.3 12.3 328 11.2
2007-06-08 05:44:46 51°15.122 2°54.431 327.9 12.4 328 11.2
2007-06-08 05:44:51 51°15.136 2°54.417 327.5 12.3 329 10.9
2007-06-08 05:44:56 51°15.151 2°54.403 327.9 12.4 330 11.2
2007-06-08 05:45:00 51°15.163 2°54.392 328.7 12.2 330 11
2007-06-08 05:45:06 51°15.18 2°54.375 329.1 12.3 329 11.4
2007-06-08 05:45:11 51°15.195 2°54.361 329.3 12.2 329 11
2007-06-08 05:45:16 51°15.21 2°54.348 329 12.3 330 11.3
2007-06-08 05:45:21 51°15.224 2°54.333 329.3 12.3 329 11.5
2007-06-08 05:45:26 51°15.239 2°54.32 329.3 12.2 330 11.3
2007-06-08 05:45:30 51°15.251 2°54.309 329.3 12.4 330 11.7
2007-06-08 05:45:36 51°15.269 2°54.292 329.6 12.5 330 11.4
2007-06-08 05:45:41 51°15.284 2°54.279 329.4 12.4 330 11.7
2007-06-08 05:45:46 51°15.299 2°54.266 329.7 12.4 331 11.6
2007-06-08 05:45:51 51°15.314 2°54.252 329.7 12.5 330 11.9
2007-06-08 05:45:55 51°15.326 2°54.241 329.5 12.4 331 11.6
2007-06-08 05:46:01 51°15.344 2°54.225 329.2 12.3 330 11.9
2007-06-08 05:46:06 51°15.359 2°54.212 329.2 12.4 331 12
2007-06-08 05:46:11 51°15.373 2°54.198 329.2 12.2 330 11.8
2007-06-08 05:46:16 51°15.388 2°54.185 329.1 12.3 330 12.2
2007-06-08 05:46:21 51°15.403 2°54.171 328.9 12 330 11.8
2007-06-08 05:46:26 51°15.417 2°54.158 328.6 12.2 330 12.2
2007-06-08 05:46:31 51°15.432 2°54.144 328.8 12.1 330 12.3
2007-06-08 05:46:36 51°15.445 2°54.131 328.6 11.7 329 12.1
2007-06-08 05:46:41 51°15.46 2°54.117 328.9 11.8 329 12.7
2007-06-08 05:46:46 51°15.474 2°54.105 328.7 11.7 330 11.9
2007-06-08 05:46:51 51°15.488 2°54.091 329 12 329 12.6
2007-06-08 05:46:56 51°15.503 2°54.078 328.8 11.9 331 12.4
2007-06-08 05:47:00 51°15.514 2°54.067 328.9 11.9 330 12.5
2007-06-08 05:47:06 51°15.532 2°54.052 329 12.2 331 12.8
2007-06-08 05:47:11 51°15.546 2°54.038 329.5 12.3 330 12.6
2007-06-08 05:47:16 51°15.561 2°54.024 329.6 12.3 330 12.5
2007-06-08 05:47:20 51°15.573 2°54.013 329.1 12.2 329 12.8
2007-06-08 05:47:26 51°15.589 2°53.997 328.8 11.6 328 12.6
2007-06-08 05:47:31 51°15.603 2°53.983 328.5 11.8 328 13.3
2007-06-08 05:47:36 51°15.617 2°53.97 327.7 11.6 330 12.7
2007-06-08 05:47:41 51°15.631 2°53.957 328.2 11.7 330 12.6
2007-06-08 05:47:46 51°15.645 2°53.944 329.1 11.9 330 13
2007-06-08 05:47:51 51°15.66 2°53.931 329 12 331 12.7
2007-06-08 05:47:56 51°15.674 2°53.917 329.3 12.2 330 13
2007-06-08 05:48:01 51°15.689 2°53.904 329.4 12.3 331 12.8
2007-06-08 05:48:06 51°15.704 2°53.891 329.5 12.3 331 12.9
2007-06-08 05:48:11 51°15.719 2°53.877 329.5 12.4 331 13.3
2007-06-08 05:48:16 51°15.735 2°53.863 329.5 12.6 330 13.4
2007-06-08 05:48:21 51°15.75 2°53.85 329.8 12.6 330 13.2
2007-06-08 05:48:26 51°15.764 2°53.836 329.2 12.3 329 13.3
2007-06-08 05:48:31 51°15.779 2°53.822 329.1 12.3 330 13.6
2007-06-08 05:48:36 51°15.794 2°53.809 329.1 12.4 330 13.3
2007-06-08 05:48:41 51°15.809 2°53.795 329.1 12.5 331 13.5
2007-06-08 05:48:46 51°15.824 2°53.782 329.5 12.4 330 13.3
2007-06-08 05:48:51 51°15.839 2°53.768 329.5 12.4 329 13.3
2007-06-08 05:48:56 51°15.854 2°53.754 329.5 12.5 330 13.5
2007-06-08 05:49:00 51°15.866 2°53.743 329.1 12.5 331 13.1
2007-06-08 05:49:06 51°15.884 2°53.727 329.2 12.6 331 13.5
2007-06-08 05:49:11 51°15.899 2°53.713 329.5 12.5 331 13.3
2007-06-08 05:49:16 51°15.915 2°53.7 329.9 12.6 330 13.6
2007-06-08 05:49:20 51°15.927 2°53.689 329.5 12.7 330 13.7
2007-06-08 05:49:26 51°15.945 2°53.672 329.5 12.6 331 13.6
2007-06-08 05:49:31 51°15.96 2°53.658 329.5 12.6 331 13.7
2007-06-08 05:49:36 51°15.975 2°53.645 329.6 12.5 331 13.7
2007-06-08 05:49:41 51°15.99 2°53.631 329.5 12.5 330 13.7
2007-06-08 05:49:46 51°16.005 2°53.617 329.5 12.6 330 13.8
2007-06-08 05:49:51 51°16.021 2°53.603 328.8 12.5 330 13.7
2007-06-08 05:49:56 51°16.036 2°53.589 329.2 12.7 330 13.9
2007-06-08 05:50:01 51°16.051 2°53.576 329.2 12.6 330 13.7
2007-06-08 05:50:06 51°16.066 2°53.562 329 12.5 330 14
2007-06-08 05:50:11 51°16.081 2°53.547 328.8 12.6 330 14
2007-06-08 05:50:16 51°16.096 2°53.534 328.7 12.4 330 13.8
2007-06-08 05:50:21 51°16.11 2°53.52 329.3 12.4 330 14.2
2007-06-08 05:50:26 51°16.125 2°53.506 329.3 12.4 331 14
2007-06-08 05:50:31 51°16.141 2°53.493 329.3 12.5 331 14.1
2007-06-08 05:50:36 51°16.156 2°53.48 329.8 12.6 332 14.1
2007-06-08 05:50:41 51°16.172 2°53.467 329.9 12.4 332 14
2007-06-08 05:50:46 51°16.186 2°53.454 329.8 12.3 330 13.9
2007-06-08 05:50:51 51°16.201 2°53.44 329.5 12.2 331 13.9
2007-06-08 05:50:56 51°16.215 2°53.427 329.2 12 330 13.7
2007-06-08 05:51:01 51°16.23 2°53.414 329.1 11.8 330 14.1
2007-06-08 05:51:06 51°16.244 2°53.401 328.4 12 330 14
2007-06-08 05:51:11 51°16.259 2°53.388 328.8 12.2 331 14.2
2007-06-08 05:51:16 51°16.274 2°53.375 328.9 12.4 331 14.1
2007-06-08 05:51:20 51°16.286 2°53.364 329.1 12.2 332 13.8
2007-06-08 05:51:26 51°16.304 2°53.349 329.3 12.4 332 14.3
2007-06-08 05:51:31 51°16.319 2°53.336 329.4 12.3 330 14.2
2007-06-08 05:51:36 51°16.333 2°53.322 329.1 12.3 331 14.1
2007-06-08 05:51:41 51°16.348 2°53.309 328.6 12.3 330 14.2
2007-06-08 05:51:46 51°16.363 2°53.295 328.4 12.5 332 14.4
2007-06-08 05:51:51 51°16.378 2°53.281 328.8 12.4 330 14.4
2007-06-08 05:51:56 51°16.393 2°53.268 329 12.3 330 14.2
2007-06-08 05:52:01 51°16.408 2°53.255 329.5 12.4 330 14.6
2007-06-08 05:52:06 51°16.422 2°53.241 328.9 12.2 330 14.2
2007-06-08 05:52:11 51°16.437 2°53.228 329.2 12.1 331 14
2007-06-08 05:52:16 51°16.452 2°53.215 329.1 12.3 331 14.2
2007-06-08 05:52:21 51°16.467 2°53.202 329.5 12.3 332 13.9
2007-06-08 05:52:26 51°16.482 2°53.189 329.8 12.4 332 14.3
2007-06-08 05:52:31 51°16.497 2°53.176 329.9 12.5 332 14.4
2007-06-08 05:52:36 51°16.512 2°53.163 330.2 12.3 331 13.8
2007-06-08 05:52:41 51°16.527 2°53.15 329.8 12.4 331 14.2
2007-06-08 05:52:46 51°16.542 2°53.136 329.9 12.4 330 14.1
2007-06-08 05:52:51 51°16.557 2°53.123 329.1 12.4 330 14
2007-06-08 05:52:55 51°16.569 2°53.112 328.8 12.6 330 14.1
2007-06-08 05:53:01 51°16.587 2°53.095 329 12.1 330 13.6
2007-06-08 05:53:06 51°16.602 2°53.082 328.7 12.2 331 13.6
2007-06-08 05:53:11 51°16.617 2°53.069 329.1 12.3 331 14
2007-06-08 05:53:16 51°16.631 2°53.056 329 12.1 331 13.8
2007-06-08 05:53:21 51°16.646 2°53.042 329.6 12.2 331 13.8
2007-06-08 05:53:26 51°16.66 2°53.029 328.7 11.9 330 13.6
2007-06-08 05:53:31 51°16.674 2°53.018 328.9 11.1 332 13.6
2007-06-08 05:53:36 51°16.686 2°53.007 329 10.4 332 13.9
2007-06-08 05:53:40 51°16.696 2°52.999 329.5 9.9 334 13.6
2007-06-08 05:53:46 51°16.71 2°52.988 329.6 9.4 334 13.7
2007-06-08 05:53:51 51°16.721 2°52.98 329.5 8.9 335 13.6
2007-06-08 05:53:56 51°16.732 2°52.972 329.6 8.5 336 13.7
2007-06-08 05:54:01 51°16.742 2°52.965 329.5 8.1 339 13.5
2007-06-08 05:54:06 51°16.752 2°52.962 331.6 7.5 350 13.3
2007-06-08 05:54:11 51°16.762 2°52.961 340 7.2 357 -999
2007-06-08 05:54:16 51°16.772 2°52.962 350.1 7.1 4 13.5
2007-06-08 05:54:21 51°16.782 2°52.965 356.1 6.9 11 13
2007-06-08 05:54:26 51°16.791 2°52.97 1.6 6.7 18 12.6
2007-06-08 05:54:31 51°16.799 2°52.976 10.1 6.5 25 -999
2007-06-08 05:54:36 51°16.807 2°52.985 19.9 6.6 34 -999
2007-06-08 05:54:41 51°16.814 2°52.994 28.6 6.6 42 12.6
2007-06-08 05:54:46 51°16.819 2°53.006 37.4 6.6 49 -999
2007-06-08 05:54:51 51°16.825 2°53.017 45.6 6.6 55 -999
2007-06-08 05:54:56 51°16.829 2°53.03 54.1 6.6 60 -999
2007-06-08 05:55:01 51°16.833 2°53.043 61.9 6.6 67 -999
2007-06-08 05:55:06 51°16.836 2°53.058 70.2 6.6 74 11.8
2007-06-08 05:55:11 51°16.837 2°53.072 79.1 6.6 78 -999
2007-06-08 05:55:16 51°16.837 2°53.086 84.7 6.5 88 -999
2007-06-08 05:55:21 51°16.837 2°53.101 94.6 6.5 92 -999
2007-06-08 05:55:26 51°16.835 2°53.115 102.5 6.5 96 12.2
2007-06-08 05:55:31 51°16.833 2°53.13 108.3 6.6 105 12.4
2007-06-08 05:55:36 51°16.832 2°53.145 113.4 7 99 12.8
2007-06-08 05:55:41 51°16.829 2°53.159 114.1 6.9 105 12.6
2007-06-08 05:55:46 51°16.826 2°53.174 115.3 7 107 12.8
2007-06-08 05:55:51 51°16.825 2°53.19 115.4 7.3 102 13.2
2007-06-08 05:55:56 51°16.823 2°53.206 113.2 7.3 101 13.2
2007-06-08 05:56:00 51°16.821 2°53.219 112.5 7.5 102 13.3
2007-06-08 05:56:06 51°16.818 2°53.239 112.3 7.5 100 13.5
2007-06-08 05:56:11 51°16.817 2°53.256 110.3 7.7 101 13.4
2007-06-08 05:56:16 51°16.815 2°53.273 108.8 7.8 95 13.6
2007-06-08 05:56:21 51°16.813 2°53.289 106.8 7.8 99 13.5
2007-06-08 05:56:26 51°16.813 2°53.307 106.9 7.8 94 13.8
2007-06-08 05:56:31 51°16.812 2°53.325 103.7 8 93 13.8
2007-06-08 05:56:36 51°16.812 2°53.342 101.9 8.1 90 13.6
2007-06-08 05:56:41 51°16.811 2°53.36 100.6 8 94 13.5
2007-06-08 05:56:46 51°16.812 2°53.378 100.3 8 89 13.7
2007-06-08 05:56:51 51°16.811 2°53.396 97.3 8 92 13.9
2007-06-08 05:56:56 51°16.812 2°53.414 95.9 8.1 89 13.8
2007-06-08 05:57:01 51°16.813 2°53.431 94.7 8.2 87 13.6
2007-06-08 05:57:06 51°16.813 2°53.449 93.9 8.2 87 13.5
2007-06-08 05:57:11 51°16.814 2°53.468 94.3 8.3 88 13.4
2007-06-08 05:57:16 51°16.815 2°53.486 93.9 8.3 85 13.7
2007-06-08 05:57:21 51°16.816 2°53.504 92.4 8.3 86 13.7
2007-06-08 05:57:26 51°16.817 2°53.522 92.3 8.3 85 13.6
2007-06-08 05:57:31 51°16.817 2°53.541 91.4 8.3 88 13.8
2007-06-08 05:57:35 51°16.818 2°53.556 91.6 8.3 85 13.4
2007-06-08 05:57:41 51°16.82 2°53.577 91.1 8.4 85 13.8
2007-06-08 05:57:46 51°16.821 2°53.596 90.5 8.5 82 13.6
2007-06-08 05:57:51 51°16.822 2°53.615 90 8.4 86 13.5
2007-06-08 05:57:56 51°16.823 2°53.633 89.7 8.2 86 13.6
2007-06-08 05:58:00 51°16.823 2°53.647 92.1 8 90 13.7
2007-06-08 05:58:06 51°16.821 2°53.667 97.9 7.7 96 13.7
2007-06-08 05:58:11 51°16.819 2°53.682 105.2 7.2 105 13.6
2007-06-08 05:58:16 51°16.815 2°53.697 114 6.9 113 13.6
2007-06-08 05:58:21 51°16.811 2°53.71 123.2 6.7 117 13.7
2007-06-08 05:58:26 51°16.805 2°53.721 130.3 6.4 125 13.7
2007-06-08 05:58:31 51°16.8 2°53.731 139.3 6.1 131 13.6
2007-06-08 05:58:36 51°16.794 2°53.739 146.6 5.7 140 13.7
2007-06-08 05:58:41 51°16.787 2°53.747 155.9 5.7 144 13.7
2007-06-08 05:58:46 51°16.78 2°53.752 162.9 5.5 153 13.7
2007-06-08 05:58:51 51°16.773 2°53.757 169.8 5.5 157 13.7
2007-06-08 05:58:56 51°16.766 2°53.76 176 5.4 164 13.8
2007-06-08 05:59:01 51°16.759 2°53.763 180.1 5.5 166 13.8
2007-06-08 05:59:06 51°16.751 2°53.766 183.6 5.6 169 13.7
2007-06-08 05:59:11 51°16.743 2°53.768 186 5.7 169 13.8
2007-06-08 05:59:16 51°16.735 2°53.77 187 5.8 171 13.8
2007-06-08 05:59:21 51°16.727 2°53.772 187.8 5.8 173 13.9
2007-06-08 05:59:26 51°16.719 2°53.774 188.4 6 172 13.9
2007-06-08 05:59:31 51°16.711 2°53.775 188.6 6 174 13.8
2007-06-08 05:59:36 51°16.702 2°53.777 189.3 6.1 171 13.7
2007-06-08 05:59:41 51°16.694 2°53.78 187.9 6.2 170 13.9
2007-06-08 05:59:46 51°16.685 2°53.783 185.8 6.4 170 13.7
2007-06-08 05:59:51 51°16.676 2°53.785 184.8 6.3 168 13.7
2007-06-08 05:59:56 51°16.667 2°53.788 184 6.5 169 13.7
2007-06-08 06:00:01 51°16.658 2°53.79 184.6 6.3 174 13.9
2007-06-08 06:00:06 51°16.649 2°53.793 185.8 6.6 168 13.9
2007-06-08 06:00:11 51°16.641 2°53.794 185.8 6.3 174 14
2007-06-08 06:00:16 51°16.632 2°53.797 187.1 6.5 170 14.1
2007-06-08 06:00:21 51°16.623 2°53.799 186.3 6.5 170 14
2007-06-08 06:00:26 51°16.614 2°53.803 184.9 6.6 166 13.9
2007-06-08 06:00:31 51°16.606 2°53.807 181.3 6.6 165 13.9
2007-06-08 06:00:36 51°16.597 2°53.812 180 6.8 160 13.9
2007-06-08 06:00:41 51°16.588 2°53.817 176.8 6.7 161 13.9
2007-06-08 06:00:46 51°16.579 2°53.823 174.4 7 156 13.9
2007-06-08 06:00:51 51°16.57 2°53.829 173.2 6.8 158 14
2007-06-08 06:00:56 51°16.561 2°53.835 171.9 7.1 154 13.9
2007-06-08 06:01:00 51°16.554 2°53.841 170.7 6.9 158 14.1
2007-06-08 06:01:06 51°16.544 2°53.849 170 7.2 153 14
2007-06-08 06:01:11 51°16.535 2°53.856 169.1 7 154 14
2007-06-08 06:01:16 51°16.526 2°53.863 168.3 7.3 151 14
2007-06-08 06:01:21 51°16.518 2°53.871 166.6 7.1 152 14
2007-06-08 06:01:26 51°16.509 2°53.879 165.3 7.3 148 14
2007-06-08 06:01:31 51°16.5 2°53.887 165.6 7.1 153 13.9
2007-06-08 06:01:36 51°16.492 2°53.896 164.6 7.4 146 14.1
2007-06-08 06:01:41 51°16.483 2°53.903 163.4 7.2 150 14
2007-06-08 06:01:46 51°16.474 2°53.913 163.3 7.3 146 14
2007-06-08 06:01:51 51°16.466 2°53.921 162 7.3 146 14
2007-06-08 06:01:56 51°16.458 2°53.931 160.3 7.3 145 14
2007-06-08 06:02:01 51°16.45 2°53.941 160.5 7.5 143 14
2007-06-08 06:02:06 51°16.441 2°53.951 158.5 7.7 144 14
2007-06-08 06:02:11 51°16.431 2°53.961 159.6 8.5 145 14
2007-06-08 06:02:16 51°16.422 2°53.973 158.6 8.9 143 14
2007-06-08 06:02:21 51°16.411 2°53.985 158.8 9.7 145 14
2007-06-08 06:02:26 51°16.4 2°53.999 156.6 10.2 142 13.9
2007-06-08 06:02:31 51°16.388 2°54.012 155.3 10.2 145 13.8
2007-06-08 06:02:36 51°16.376 2°54.027 155.7 11 141 13.8
2007-06-08 06:02:41 51°16.363 2°54.039 155.1 11 149 13.8
2007-06-08 06:02:46 51°16.35 2°54.052 156.5 10.8 147 13.9
2007-06-08 06:02:51 51°16.337 2°54.065 159.5 11.3 148 13.9
2007-06-08 06:02:56 51°16.323 2°54.079 158.4 11.7 148 13.7
2007-06-08 06:03:00 51°16.312 2°54.089 158.3 11.3 152 13.7
2007-06-08 06:03:06 51°16.295 2°54.104 161 11.5 148 13.8
2007-06-08 06:03:11 51°16.281 2°54.117 161.1 11.7 151 13.7
2007-06-08 06:03:16 51°16.267 2°54.13 159.5 12.1 151 13.6
2007-06-08 06:03:20 51°16.255 2°54.14 160.6 11.9 152 13.5
2007-06-08 06:03:26 51°16.238 2°54.156 161.4 11.8 147 13.7
2007-06-08 06:03:30 51°16.227 2°54.166 159 11.6 152 13.6
2007-06-08 06:03:36 51°16.21 2°54.182 159.6 11.9 150 13.6
2007-06-08 06:03:40 51°16.198 2°54.192 160.3 11.8 150 13.4
2007-06-08 06:03:46 51°16.182 2°54.209 158.9 11.4 147 13.4
2007-06-08 06:03:50 51°16.171 2°54.217 157.5 11.5 153 13.5
2007-06-08 06:03:56 51°16.153 2°54.233 161.6 12.2 150 13.4
2007-06-08 06:04:01 51°16.139 2°54.246 160.4 12 150 13.4
2007-06-08 06:04:06 51°16.126 2°54.26 159.2 11.4 148 13.4
2007-06-08 06:04:10 51°16.114 2°54.269 158.3 11.6 154 13.5
2007-06-08 06:04:15 51°16.099 2°54.281 161.5 12.5 152 13.4
2007-06-08 06:04:21 51°16.081 2°54.296 161.9 11.9 152 13.3
2007-06-08 06:04:26 51°16.067 2°54.308 160.4 11.4 153 13.4
2007-06-08 06:04:31 51°16.052 2°54.318 160.4 11.8 156 13.3
2007-06-08 06:04:35 51°16.041 2°54.329 164 12 152 13.3
2007-06-08 06:04:41 51°16.023 2°54.341 162.2 11.7 158 13.3
2007-06-08 06:04:46 51°16.008 2°54.351 165.5 11.7 156 13.3
2007-06-08 06:04:51 51°15.993 2°54.362 165.4 11.6 155 13.3
2007-06-08 06:04:55 51°15.981 2°54.369 163.7 11.8 160 13.4
2007-06-08 06:05:00 51°15.965 2°54.378 167.4 11.8 158 13.3
2007-06-08 06:05:06 51°15.948 2°54.39 168.1 11.3 158 13.3
2007-06-08 06:05:11 51°15.933 2°54.399 166.9 11.4 158 13.2
2007-06-08 06:05:16 51°15.918 2°54.409 166.8 11.6 158 13.1
2007-06-08 06:05:20 51°15.906 2°54.415 167 11.4 161 13.1
2007-06-08 06:05:26 51°15.889 2°54.427 168.3 11.5 158 13.1
2007-06-08 06:05:31 51°15.873 2°54.433 167.6 11.5 163 13.2
2007-06-08 06:05:36 51°15.858 2°54.444 169.9 11.7 159 13.1
2007-06-08 06:05:40 51°15.846 2°54.449 169.2 11.8 163 13
2007-06-08 06:05:46 51°15.828 2°54.46 169.5 11.6 160 12.9
2007-06-08 06:05:51 51°15.813 2°54.467 169.4 11 163 13
2007-06-08 06:05:55 51°15.801 2°54.474 170.5 11.6 162 12.9
2007-06-08 06:06:01 51°15.782 2°54.481 171.2 11.6 166 12.7
2007-06-08 06:06:06 51°15.768 2°54.489 173.5 11.2 162 12.8
2007-06-08 06:06:10 51°15.755 2°54.495 173 11.8 163 12.6
2007-06-08 06:06:16 51°15.736 2°54.502 171.6 11.7 167 12.5
2007-06-08 06:06:21 51°15.721 2°54.51 174.9 11.4 163 12.6
2007-06-08 06:06:26 51°15.705 2°54.515 173.9 11.7 167 12.6
2007-06-08 06:06:30 51°15.692 2°54.521 174.3 11.9 165 12.4
2007-06-08 06:06:36 51°15.674 2°54.527 175.2 11.4 167 12.4
2007-06-08 06:06:40 51°15.661 2°54.533 175.7 11.4 164 12.5
2007-06-08 06:06:46 51°15.643 2°54.541 174.8 11.7 165 12.4
2007-06-08 06:06:51 51°15.627 2°54.546 173.1 11.3 168 12.3
2007-06-08 06:06:55 51°15.615 2°54.55 176.4 11.6 167 12.3
2007-06-08 06:07:01 51°15.595 2°54.557 176.2 12 168 12.1
2007-06-08 06:07:06 51°15.58 2°54.562 176.4 11.1 168 12.1
2007-06-08 06:07:11 51°15.566 2°54.567 177 10.5 168 12.2
2007-06-08 06:07:15 51°15.554 2°54.57 176.9 10.8 168 12
2007-06-08 06:07:20 51°15.54 2°54.576 177.6 10.4 167 11.9
2007-06-08 06:07:26 51°15.524 2°54.582 176.6 9.7 166 12
2007-06-08 06:07:31 51°15.511 2°54.586 175.7 9.6 168 11.9
2007-06-08 06:07:36 51°15.498 2°54.591 178.5 9.7 167 11.8
2007-06-08 06:07:40 51°15.488 2°54.594 177 9.1 170 11.8
2007-06-08 06:07:46 51°15.473 2°54.598 179.4 9 171 11.8
2007-06-08 06:07:51 51°15.461 2°54.602 180.4 9.2 169 11.7
2007-06-08 06:07:55 51°15.451 2°54.604 180.1 8.7 172 11.8
2007-06-08 06:08:00 51°15.439 2°54.608 182 8.9 171 11.7
2007-06-08 06:08:06 51°15.424 2°54.611 181.1 8.8 172 11.6
2007-06-08 06:08:10 51°15.415 2°54.614 181.4 8.4 171 11.6
2007-06-08 06:08:16 51°15.401 2°54.618 182.1 8.4 168 11.6
2007-06-08 06:08:21 51°15.391 2°54.62 180.5 7.8 173 11.6
2007-06-08 06:08:26 51°15.38 2°54.623 181.9 7.8 170 11.6
2007-06-08 06:08:30 51°15.372 2°54.626 181.4 7.6 170 11.5
2007-06-08 06:08:36 51°15.359 2°54.628 182.1 7.4 173 11.6
2007-06-08 06:08:40 51°15.351 2°54.63 182.6 7.2 171 11.5
2007-06-08 06:08:46 51°15.339 2°54.633 183.6 7.2 171 11.5
2007-06-08 06:08:51 51°15.33 2°54.634 182.5 7 176 11.4
2007-06-08 06:08:56 51°15.32 2°54.637 184.8 6.9 172 11.3
2007-06-08 06:09:01 51°15.311 2°54.637 184.4 6.7 176 11.3
2007-06-08 06:09:06 51°15.302 2°54.639 186.6 6.7 175 11.4
2007-06-08 06:09:11 51°15.292 2°54.638 187.2 6.6 180 11.2
2007-06-08 06:09:15 51°15.285 2°54.64 188.8 6.5 175 11.2
2007-06-08 06:09:21 51°15.275 2°54.638 189.4 6.3 184 11.3
2007-06-08 06:09:26 51°15.265 2°54.64 191.9 6.5 177 11.2
2007-06-08 06:09:30 51°15.259 2°54.638 191.6 6.2 186 11.3
2007-06-08 06:09:36 51°15.248 2°54.639 193.1 6.3 179 11.2
2007-06-08 06:09:41 51°15.24 2°54.637 192.3 6.2 183 11.4
2007-06-08 06:09:46 51°15.231 2°54.638 194.3 6.1 180 11
2007-06-08 06:09:51 51°15.223 2°54.638 192.3 6.1 177 11.1
2007-06-08 06:09:55 51°15.216 2°54.639 191.8 6.1 182 11
2007-06-08 06:10:00 51°15.207 2°54.64 191.5 6.1 173 11
2007-06-08 06:10:06 51°15.198 2°54.641 188.9 6 177 11
2007-06-08 06:10:11 51°15.189 2°54.642 188.1 6.1 172 11.1
2007-06-08 06:10:16 51°15.181 2°54.643 187.4 6 177 11.2
2007-06-08 06:10:21 51°15.172 2°54.645 187.2 6.1 171 11.1
2007-06-08 06:10:26 51°15.164 2°54.646 186.4 6 176 11
2007-06-08 06:10:30 51°15.157 2°54.648 186.8 6.1 170 11.1
2007-06-08 06:10:36 51°15.147 2°54.65 185.9 6.1 173 11
2007-06-08 06:10:40 51°15.141 2°54.652 185.8 6 172 11.1
2007-06-08 06:10:46 51°15.131 2°54.654 185.3 6.1 172 11
2007-06-08 06:10:50 51°15.124 2°54.656 185 6 169 11
2007-06-08 06:10:56 51°15.114 2°54.658 184.5 6 173 11
2007-06-08 06:11:01 51°15.106 2°54.66 184.5 6 170 11
2007-06-08 06:11:06 51°15.098 2°54.662 184.5 6 172 11
2007-06-08 06:11:11 51°15.09 2°54.665 184.3 6.1 168 11
2007-06-08 06:11:15 51°15.083 2°54.666 184.1 6 174 10.9
2007-06-08 06:11:21 51°15.073 2°54.67 183.7 6.2 164 11.1
2007-06-08 06:11:26 51°15.065 2°54.671 183.1 5.9 173 10.9
2007-06-08 06:11:30 51°15.058 2°54.675 182.9 6.2 164 11.1
2007-06-08 06:11:35 51°15.05 2°54.677 182.5 6 170 11.1
2007-06-08 06:11:41 51°15.04 2°54.681 182.1 6.1 164 11.2
2007-06-08 06:11:46 51°15.032 2°54.684 181.4 6 167 11.2
2007-06-08 06:11:51 51°15.024 2°54.688 181.3 6.1 163 11.2
2007-06-08 06:11:55 51°15.018 2°54.69 180.7 6 167 11.4
2007-06-08 06:12:00 51°15.009 2°54.695 180.7 6.1 164 11.4
2007-06-08 06:12:06 51°15 2°54.698 180.2 6 165 11.4
2007-06-08 06:12:11 51°14.991 2°54.702 180.6 6.1 166 11.4
2007-06-08 06:12:15 51°14.985 2°54.704 180.3 6 164 11.6
2007-06-08 06:12:20 51°14.977 2°54.708 180.9 6 167 11.4
2007-06-08 06:12:25 51°14.969 2°54.711 180.4 6 163 11.6
2007-06-08 06:12:31 51°14.959 2°54.715 180.7 6 169 11.6
2007-06-08 06:12:36 51°14.951 2°54.718 180.7 5.9 164 11.6
2007-06-08 06:12:40 51°14.945 2°54.721 181.2 6 168 11.6
2007-06-08 06:12:46 51°14.935 2°54.724 181 5.9 167 11.6
2007-06-08 06:12:51 51°14.927 2°54.727 181.8 6 168 11.7
2007-06-08 06:12:56 51°14.919 2°54.73 181.4 6 166 11.8
2007-06-08 06:13:00 51°14.912 2°54.731 181.5 5.9 171 11.7
2007-06-08 06:13:06 51°14.903 2°54.735 181.5 5.9 167 11.7
2007-06-08 06:13:11 51°14.895 2°54.737 182 5.9 170 11.8
2007-06-08 06:13:16 51°14.887 2°54.74 182.2 5.8 170 11.8
2007-06-08 06:13:21 51°14.879 2°54.742 182.7 5.9 169 11.7
2007-06-08 06:13:26 51°14.871 2°54.744 182.9 5.8 171 11.8
2007-06-08 06:13:30 51°14.864 2°54.746 183.3 5.9 169 11.8
2007-06-08 06:13:35 51°14.856 2°54.748 183.4 5.9 171 11.8
2007-06-08 06:13:41 51°14.847 2°54.75 183.5 5.8 169 11.8
2007-06-08 06:13:46 51°14.839 2°54.753 184.1 5.9 171 12
2007-06-08 06:13:50 51°14.832 2°54.754 183.6 5.8 173 11.7
2007-06-08 06:13:55 51°14.824 2°54.756 184.4 6 168 12
2007-06-08 06:14:00 51°14.816 2°54.758 183.8 5.8 174 12
2007-06-08 06:14:06 51°14.806 2°54.762 183.7 6 167 12
2007-06-08 06:14:11 51°14.798 2°54.763 183.7 5.8 171 12.1
2007-06-08 06:14:15 51°14.792 2°54.766 183.6 5.9 169 12
2007-06-08 06:14:20 51°14.784 2°54.767 182.7 5.9 165 12.1
2007-06-08 06:14:26 51°14.774 2°54.771 182.8 5.8 172 12
2007-06-08 06:14:31 51°14.767 2°54.775 181.4 5.9 163 12
2007-06-08 06:14:35 51°14.76 2°54.777 181 5.9 166 11.9
2007-06-08 06:14:40 51°14.752 2°54.78 180 5.9 165 12
2007-06-08 06:14:46 51°14.742 2°54.785 179.3 6.1 164 12
2007-06-08 06:14:51 51°14.734 2°54.788 179.2 6.6 167 12
2007-06-08 06:14:56 51°14.724 2°54.793 178.5 7.5 163 11.9
2007-06-08 06:15:00 51°14.715 2°54.796 176.7 8 168 12
2007-06-08 06:15:06 51°14.701 2°54.804 177 9 160 11.9
2007-06-08 06:15:11 51°14.688 2°54.809 172.9 9.7 165 11.8
2007-06-08 06:15:16 51°14.675 2°54.815 173.1 10 164 11.8
2007-06-08 06:15:20 51°14.664 2°54.82 173.8 10.8 164 11.7
2007-06-08 06:15:26 51°14.645 2°54.828 172.7 11.4 165 11.7
2007-06-08 06:15:30 51°14.633 2°54.834 174 11.8 162 11.6
2007-06-08 06:15:36 51°14.614 2°54.842 171.9 11.7 165 11.7
2007-06-08 06:15:41 51°14.598 2°54.851 172.4 11.9 160 11.8
2007-06-08 06:15:46 51°14.582 2°54.861 170 12.5 160 11.9
2007-06-08 06:15:50 51°14.568 2°54.868 167.8 12.9 161 11.8
2007-06-08 06:15:55 51°14.552 2°54.878 168.5 12.5 157 11.8
2007-06-08 06:16:01 51°14.533 2°54.891 166.4 11.9 157 11.9
2007-06-08 06:16:07 51°14.515 2°54.905 164.7 12.2 156 12
2007-06-08 06:16:11 51°14.501 2°54.914 164.3 13.3 156 11.9
2007-06-08 06:16:15 51°14.487 2°54.924 163.3 13.5 154 11.9
2007-06-08 06:16:20 51°14.472 2°54.938 162.2 12.9 150 12.1
2007-06-08 06:16:26 51°14.454 2°54.955 157.9 12.4 148 12.5
2007-06-08 06:16:31 51°14.439 2°54.97 155.3 12.7 148 13
2007-06-08 06:16:35 51°14.427 2°54.984 154.9 13.2 143 13.1
2007-06-08 06:16:40 51°14.413 2°55.002 150.9 13.4 143 13
2007-06-08 06:16:46 51°14.397 2°55.026 148.6 12.9 136 13.3
2007-06-08 06:16:51 51°14.384 2°55.044 145 12.4 138 13.4
2007-06-08 06:16:56 51°14.373 2°55.066 142.9 13.1 131 13.5
2007-06-08 06:17:00 51°14.362 2°55.083 139.3 13.3 135 13.1
2007-06-08 06:17:06 51°14.348 2°55.107 137.3 12.6 135 13.5
2007-06-08 06:17:11 51°14.335 2°55.127 137.4 12.5 134 13.6
2007-06-08 06:17:16 51°14.324 2°55.149 136.7 13.1 129 13.5
2007-06-08 06:17:20 51°14.315 2°55.168 132.8 13.1 128 13.5
2007-06-08 06:17:26 51°14.301 2°55.194 130.9 12.9 131 13.6
2007-06-08 06:17:30 51°14.292 2°55.211 132.2 12.7 130 13.6
2007-06-08 06:17:36 51°14.278 2°55.237 132.8 12.9 131 13.4
2007-06-08 06:17:41 51°14.267 2°55.259 133.5 12.8 131 13.4
2007-06-08 06:17:46 51°14.254 2°55.278 134.1 12.7 136 13.4
2007-06-08 06:17:51 51°14.242 2°55.297 136.4 12.1 134 13.4
2007-06-08 06:17:56 51°14.23 2°55.314 136.6 11.6 138 13.5
2007-06-08 06:18:01 51°14.218 2°55.33 139.1 11.5 140 13.5
2007-06-08 06:18:06 51°14.206 2°55.347 141.9 11.3 140 13.5
2007-06-08 06:18:11 51°14.194 2°55.36 142.9 10.6 144 13.4
2007-06-08 06:18:16 51°14.183 2°55.374 145.8 10.3 142 -999
2007-06-08 06:18:21 51°14.171 2°55.387 146.3 10.1 145 -999
2007-06-08 06:18:26 51°14.16 2°55.399 147.5 9.7 147 13.5
2007-06-08 06:18:30 51°14.151 2°55.407 150 9.4 149 13.6
2007-06-08 06:18:36 51°14.138 2°55.419 151.6 9.3 152 13.6
2007-06-08 06:18:40 51°14.129 2°55.426 154.8 9.1 154 13.5
2007-06-08 06:18:46 51°14.115 2°55.436 156.7 8.9 155 13.5
2007-06-08 06:18:51 51°14.104 2°55.444 158.3 8.8 156 13.5
2007-06-08 06:18:56 51°14.093 2°55.452 159 8.7 156 13.5
2007-06-08 06:19:00 51°14.084 2°55.458 159.3 8.6 157 13.5
2007-06-08 06:19:06 51°14.071 2°55.467 159.5 8.4 156 13.5
2007-06-08 06:19:11 51°14.061 2°55.474 159.6 8.3 157 13.6
2007-06-08 06:19:16 51°14.05 2°55.482 159.7 8.1 156 13.6
2007-06-08 06:19:20 51°14.042 2°55.487 159.5 7.9 156 13.6
2007-06-08 06:19:26 51°14.03 2°55.496 159.5 7.8 156 13.6
2007-06-08 06:19:30 51°14.022 2°55.501 159.6 7.7 156 13.6
2007-06-08 06:19:35 51°14.013 2°55.508 159.6 7.5 156 13.6
2007-06-08 06:19:41 51°14.002 2°55.516 159.8 7.5 157 13.5
2007-06-08 06:19:46 51°13.992 2°55.522 159.8 7.4 156 13.6
2007-06-08 06:19:50 51°13.985 2°55.527 160.4 7.3 158 13.6
2007-06-08 06:19:56 51°13.974 2°55.535 160.4 7.2 156 13.5
2007-06-08 06:20:01 51°13.965 2°55.541 160.7 7.1 158 13.6
2007-06-08 06:20:06 51°13.956 2°55.547 160.7 7.1 157 13.6
2007-06-08 06:20:10 51°13.948 2°55.552 160.8 7 159 13.5
2007-06-08 06:20:15 51°13.939 2°55.557 161.1 7 157 -999
2007-06-08 06:20:22 51°13.927 2°55.566 160.9 6.9 157 13.5
2007-06-08 06:20:26 51°13.92 2°55.571 159.7 7 155 13.5
2007-06-08 06:20:30 51°13.913 2°55.576 159.3 7 158 13.5
2007-06-08 06:20:35 51°13.904 2°55.582 159.6 7 158 13.5
2007-06-08 06:20:41 51°13.893 2°55.588 160.7 7 159 13.5
2007-06-08 06:20:47 51°13.882 2°55.595 161.1 6.9 158 13.5
2007-06-08 06:20:51 51°13.875 2°55.6 160.6 6.9 158 13.5
2007-06-08 06:20:55 51°13.868 2°55.605 159.5 6.9 157 13.5
2007-06-08 06:21:00 51°13.859 2°55.611 159.2 6.9 158 13.6
2007-06-08 06:21:06 51°13.848 2°55.618 159 6.9 157 13.6
2007-06-08 06:21:11 51°13.84 2°55.624 159 6.9 157 13.6
2007-06-08 06:21:15 51°13.833 2°55.629 158.8 6.9 156 13.6
2007-06-08 06:21:20 51°13.824 2°55.635 158.1 7 155 13.6
2007-06-08 06:21:25 51°13.815 2°55.642 156.7 7 153 13.6
2007-06-08 06:21:31 51°13.805 2°55.65 155.4 6.9 151 13.7
2007-06-08 06:21:36 51°13.797 2°55.658 153.9 6.7 151 13.6
2007-06-08 06:21:40 51°13.791 2°55.664 152.4 6.6 147 13.7
2007-06-08 06:21:46 51°13.782 2°55.674 150.8 6.5 146 13.7
2007-06-08 06:21:51 51°13.775 2°55.683 148 6.3 143 13.7
2007-06-08 06:21:56 51°13.768 2°55.692 145.5 6.3 141 13.7
2007-06-08 06:22:00 51°13.763 2°55.699 143.1 6.2 139 13.7
2007-06-08 06:22:06 51°13.756 2°55.71 141 6.1 137 13.7
2007-06-08 06:22:12 51°13.749 2°55.722 139.4 6.1 135 13.7
2007-06-08 06:22:16 51°13.744 2°55.73 137.7 6.1 134 13.7
2007-06-08 06:22:21 51°13.738 2°55.739 136.4 6 133 13.8
2007-06-08 06:22:26 51°13.733 2°55.749 135.9 6 133 14.2
2007-06-08 06:22:30 51°13.728 2°55.757 135.5 6 132 14.2
2007-06-08 06:22:36 51°13.721 2°55.768 135.1 5.9 132 14.6
2007-06-08 06:22:41 51°13.716 2°55.778 134.4 5.9 131 14.5
2007-06-08 06:22:46 51°13.711 2°55.788 133.9 5.9 131 14.2
2007-06-08 06:22:50 51°13.707 2°55.796 133.6 5.8 131 14
2007-06-08 06:22:55 51°13.701 2°55.805 133.5 5.7 130 13.8
2007-06-08 06:23:01 51°13.696 2°55.817 133.1 5.6 129 13.7
2007-06-08 06:23:06 51°13.691 2°55.826 132.5 5.5 129 13.4
2007-06-08 06:23:11 51°13.686 2°55.836 131.8 5.4 127 13.3
2007-06-08 06:23:15 51°13.683 2°55.843 131.1 5.3 127 13.4
2007-06-08 06:23:22 51°13.677 2°55.856 130.6 5.3 126 -999
2007-06-08 06:23:26 51°13.673 2°55.863 130.2 5.2 126 13.3
2007-06-08 06:23:31 51°13.669 2°55.872 130.1 5.2 126 13.3
2007-06-08 06:23:36 51°13.664 2°55.881 130.1 5.1 127 13.3
2007-06-08 06:23:40 51°13.661 2°55.888 130.1 5 127 13.3
2007-06-08 06:23:46 51°13.656 2°55.898 130.1 4.9 127 13.3
2007-06-08 06:23:51 51°13.651 2°55.907 130.1 4.8 127 13.2
2007-06-08 06:23:56 51°13.647 2°55.915 130 4.7 127 13.4
2007-06-08 06:24:00 51°13.645 2°55.922 129.9 4.6 126 13.4
2007-06-08 06:24:06 51°13.64 2°55.931 129.4 4.5 126 13.4
2007-06-08 06:24:10 51°13.638 2°55.938 128.7 4.4 125 13.4
2007-06-08 06:24:16 51°13.634 2°55.947 127.9 4.2 124 13.4
2007-06-08 06:24:21 51°13.631 2°55.955 127 4.2 124 13.4
2007-06-08 06:24:26 51°13.628 2°55.962 126 4.1 123 13.4
2007-06-08 06:24:30 51°13.625 2°55.968 124.9 4 122 13.4
2007-06-08 06:24:37 51°13.622 2°55.979 123.9 3.9 121 13.4
2007-06-08 06:24:41 51°13.619 2°55.985 123 3.9 121 13.5
2007-06-08 06:24:46 51°13.617 2°55.992 122.3 3.8 120 -999
2007-06-08 06:24:51 51°13.614 2°56 121.3 3.8 120 13.4
2007-06-08 06:24:55 51°13.612 2°56.005 120.6 3.8 119 13.5
2007-06-08 06:25:01 51°13.609 2°56.014 119.9 3.7 118 13.4
2007-06-08 06:25:06 51°13.607 2°56.021 119 3.7 117 13.5
2007-06-08 06:25:11 51°13.605 2°56.029 118.1 3.6 116 -999
2007-06-08 06:25:15 51°13.603 2°56.035 116.8 3.6 115 13.5
2007-06-08 06:25:21 51°13.601 2°56.043 115.9 3.6 114 -999
2007-06-08 06:25:26 51°13.599 2°56.051 115 3.6 113 13.5
2007-06-08 06:25:31 51°13.597 2°56.058 113.7 3.5 112 13.5
2007-06-08 06:25:36 51°13.596 2°56.064 112.6 3.4 111 -999
2007-06-08 06:25:41 51°13.594 2°56.071 111.4 3.2 110 13.2
2007-06-08 06:25:46 51°13.593 2°56.077 110 3 109 12.9
2007-06-08 06:25:51 51°13.592 2°56.083 108.8 2.8 107 12.6
2007-06-08 06:25:55 51°13.591 2°56.088 108.1 2.7 109 12.2
2007-06-08 06:26:00 51°13.59 2°56.093 108.1 2.6 108 12
2007-06-08 06:26:06 51°13.589 2°56.1 108.3 2.5 107 11.9
2007-06-08 06:26:11 51°13.588 2°56.104 108.3 2.2 109 11.2
2007-06-08 06:26:16 51°13.587 2°56.108 108 1.9 105 10.8
2007-06-08 06:26:20 51°13.586 2°56.111 107.6 1.7 112 10.8
2007-06-08 06:26:26 51°13.585 2°56.115 107.7 1.3 101 10.7
2007-06-08 06:26:31 51°13.585 2°56.117 108.2 1.3 119 10.7
2007-06-08 06:26:37 51°13.584 2°56.119 109.2 0.9 100 10.7
2007-06-08 06:26:41 51°13.584 2°56.12 109.6 0.5 124 10.7
2007-06-08 06:26:47 51°13.584 2°56.121 109.9 0.4 103 10.7
2007-06-08 06:26:52 51°13.584 2°56.122 110.7 0.5 124 10.8
2007-06-08 06:26:57 51°13.584 2°56.123 110.8 0.5 106 10.7
2007-06-08 06:27:02 51°13.583 2°56.124 110.3 0.5 128 10.7
2007-06-08 06:27:07 51°13.583 2°56.125 109.8 0.5 115 10.7
2007-06-08 06:27:11 51°13.583 2°56.125 109.5 0.5 130 10.8
2007-06-08 06:27:16 51°13.582 2°56.126 110 0.5 121 10.8
2007-06-08 06:27:22 51°13.581 2°56.127 110.8 0.5 129 10.8
2007-06-08 06:27:27 51°13.581 2°56.129 111.3 0.5 117 10.8
2007-06-08 06:27:32 51°13.58 2°56.129 111.7 0.4 128 10.8
2007-06-08 06:27:36 51°13.58 2°56.13 111.8 0.2 125 10.8
2007-06-08 06:27:41 51°13.58 2°56.13 112.4 0.3 139 10.8
2007-06-08 06:27:47 51°13.58 2°56.13 113 0.2 124 10.7
2007-06-08 06:27:52 51°13.58 2°56.131 114.4 0.2 127 10.7
2007-06-08 06:27:57 51°13.58 2°56.131 115.2 0.2 121 10.7
2007-06-08 06:28:02 51°13.579 2°56.132 116 0.2 129 10.7
2007-06-08 06:28:07 51°13.579 2°56.132 116.4 0.2 110 10.7
2007-06-08 06:28:12 51°13.579 2°56.132 116.5 0.2 102 10.7
2007-06-08 06:28:17 51°13.579 2°56.133 115.5 0.1 74 10.7
2007-06-08 06:28:22 51°13.58 2°56.133 114.7 0.1 35 -999
2007-06-08 06:28:27 51°13.58 2°56.133 114.2 0.2 36 -999
2007-06-08 06:28:32 51°13.58 2°56.133 113.9 0.1 77 -999
2007-06-08 06:28:37 51°13.58 2°56.133 113.9 0.2 57 -999
2007-06-08 06:28:42 51°13.58 2°56.133 113.9 0.1 40 -999
2007-06-08 06:28:47 51°13.58 2°56.133 114.1 0.1 339 -999
2007-06-08 06:28:52 51°13.58 2°56.133 115.1 0.1 337 -999
2007-06-08 06:29:02 51°13.58 2°56.133 117.3 0.1 230 -999
2007-06-08 06:29:07 51°13.58 2°56.133 118.5 0.1 257 -999
2007-06-08 06:29:37 51°13.58 2°56.133 124.4 0.1 347 -999
2007-06-08 06:29:42 51°13.58 2°56.133 125.2 0.1 23 -999
2007-06-08 06:29:52 51°13.581 2°56.133 126.3 0.1 7 -999
2007-06-08 06:29:57 51°13.581 2°56.133 126.2 0.1 22 -999
2007-06-08 06:30:02 51°13.581 2°56.133 126 0.1 44 -999
2007-06-08 06:30:22 51°13.581 2°56.133 125.5 0.1 49 -999
2007-06-08 06:30:27 51°13.581 2°56.133 125.2 0.1 47 -999
2007-06-08 06:30:52 51°13.581 2°56.133 125.3 0.1 223 -999
2007-06-08 10:35:39 51°13.581 2°56.133 126.2 0.1 152 -999
2007-06-08 10:45:19 51°13.581 2°56.133 126.2 0.1 325 -999
2007-06-08 10:49:44 51°13.579 2°56.134 126.2 0.1 155 -999
2007-06-08 10:49:49 51°13.579 2°56.134 126.2 0.1 138 -999